KOLE/OLE METAR and TAF weather

Enter ICAO airport designator
Station Type Date Time Source
KOLE METAR 2022/12/04 11:35 UTC NOAA

KOLE 041135Z AUTO 27005KT 10SM OVC027 M03/M08 A3015 RMK AO2


Station Type Date Time Source
KOLE Decoded METAR 2022/12/04 11:35 UTC NOAA

Olean Municipal, NY, United States (KOLE) 42-14N 078-22W
Dec 04, 2022 - 06:35 AM EST / 2022.12.04 1135 UTC
Wind: from the W (270 degrees) at 6 MPH (5 KT):0
Visibility: 10 mile(s):0
Sky conditions: overcast
Temperature: 26 F (-3 C)
Windchill: 19 F (-7 C):1
Dew Point: 17 F (-8 C)
Relative Humidity: 68%
Pressure (altimeter): 30.15 in. Hg (1020 hPa)
ob: KOLE 041135Z AUTO 27005KT 10SM OVC027 M03/M08 A3015 RMK AO2
cycle: 11

Station Type Date Time Source
KOLE TAF UTC NOAA

Error!

Example: see airport list